sensor_id;sensor_type;location;lat;lon;timestamp;temperature;humidity
18593;DHT22;9426;54.118;17.948;2022-10-03T00:03:05;10.30;99.90
18593;DHT22;9426;54.118;17.948;2022-10-03T00:09:00;10.30;99.90
18593;DHT22;9426;54.118;17.948;2022-10-03T00:14:33;10.30;99.90
18593;DHT22;9426;54.118;17.948;2022-10-03T00:20:10;10.30;99.90
18593;DHT22;9426;54.118;17.948;2022-10-03T00:25:42;10.40;99.90
18593;DHT22;9426;54.118;17.948;2022-10-03T00:31:12;10.40;99.90
18593;DHT22;9426;54.118;17.948;2022-10-03T00:36:45;10.40;99.90
18593;DHT22;9426;54.118;17.948;2022-10-03T00:42:43;10.40;99.90
18593;DHT22;9426;54.118;17.948;2022-10-03T00:48:43;10.40;99.90
18593;DHT22;9426;54.118;17.948;2022-10-03T00:54:34;10.40;99.90
18593;DHT22;9426;54.118;17.948;2022-10-03T01:00:15;10.40;99.90
18593;DHT22;9426;54.118;17.948;2022-10-03T01:05:49;10.40;99.90
18593;DHT22;9426;54.118;17.948;2022-10-03T01:11:30;10.40;99.90
18593;DHT22;9426;54.118;17.948;2022-10-03T01:17:07;10.50;99.90
18593;DHT22;9426;54.118;17.948;2022-10-03T01:28:41;10.40;99.90
18593;DHT22;9426;54.118;17.948;2022-10-03T01:34:26;10.50;99.90
18593;DHT22;9426;54.118;17.948;2022-10-03T01:39:58;10.50;99.90
18593;DHT22;9426;54.118;17.948;2022-10-03T01:45:29;10.50;99.90
18593;DHT22;9426;54.118;17.948;2022-10-03T01:51:00;10.50;99.90
18593;DHT22;9426;54.118;17.948;2022-10-03T01:56:30;10.60;99.90
18593;DHT22;9426;54.118;17.948;2022-10-03T02:02:03;10.60;99.90
18593;DHT22;9426;54.118;17.948;2022-10-03T02:07:37;10.50;99.90
18593;DHT22;9426;54.118;17.948;2022-10-03T02:13:08;10.50;99.90
18593;DHT22;9426;54.118;17.948;2022-10-03T02:18:42;10.50;99.90
18593;DHT22;9426;54.118;17.948;2022-10-03T02:24:23;10.50;99.90
18593;DHT22;9426;54.118;17.948;2022-10-03T02:30:15;10.60;99.90
18593;DHT22;9426;54.118;17.948;2022-10-03T02:41:52;10.50;99.90
18593;DHT22;9426;54.118;17.948;2022-10-03T02:47:58;10.50;99.90
18593;DHT22;9426;54.118;17.948;2022-10-03T03:00:06;10.40;99.90
18593;DHT22;9426;54.118;17.948;2022-10-03T03:11:56;10.50;99.90
18593;DHT22;9426;54.118;17.948;2022-10-03T03:17:33;10.40;99.90
18593;DHT22;9426;54.118;17.948;2022-10-03T03:23:11;10.40;99.90
18593;DHT22;9426;54.118;17.948;2022-10-03T03:28:47;10.40;99.90
18593;DHT22;9426;54.118;17.948;2022-10-03T03:34:22;10.50;99.90
18593;DHT22;9426;54.118;17.948;2022-10-03T03:40:01;10.40;99.90
18593;DHT22;9426;54.118;17.948;2022-10-03T03:45:39;10.40;99.90
18593;DHT22;9426;54.118;17.948;2022-10-03T03:51:21;10.30;99.90
18593;DHT22;9426;54.118;17.948;2022-10-03T03:57:00;10.30;99.90
18593;DHT22;9426;54.118;17.948;2022-10-03T04:02:43;10.40;99.90
18593;DHT22;9426;54.118;17.948;2022-10-03T04:08:19;10.40;99.90
18593;DHT22;9426;54.118;17.948;2022-10-03T04:14:28;10.40;99.90
18593;DHT22;9426;54.118;17.948;2022-10-03T04:20:05;10.40;99.90
18593;DHT22;9426;54.118;17.948;2022-10-03T04:25:49;10.30;99.90
18593;DHT22;9426;54.118;17.948;2022-10-03T04:31:26;10.30;99.90
18593;DHT22;9426;54.118;17.948;2022-10-03T04:37:03;10.30;99.90
18593;DHT22;9426;54.118;17.948;2022-10-03T04:42:42;10.30;99.90
18593;DHT22;9426;54.118;17.948;2022-10-03T04:48:13;10.30;99.90
18593;DHT22;9426;54.118;17.948;2022-10-03T04:53:48;10.30;99.90
18593;DHT22;9426;54.118;17.948;2022-10-03T04:59:45;10.20;99.90
18593;DHT22;9426;54.118;17.948;2022-10-03T05:05:45;10.20;99.90
18593;DHT22;9426;54.118;17.948;2022-10-03T05:11:19;10.00;99.90
18593;DHT22;9426;54.118;17.948;2022-10-03T05:16:52;9.90;99.90
18593;DHT22;9426;54.118;17.948;2022-10-03T05:22:37;9.90;99.90
18593;DHT22;9426;54.118;17.948;2022-10-03T05:28:11;9.80;99.90
18593;DHT22;9426;54.118;17.948;2022-10-03T05:33:45;9.80;99.90
18593;DHT22;9426;54.118;17.948;2022-10-03T05:39:36;9.80;99.90
18593;DHT22;9426;54.118;17.948;2022-10-03T05:45:08;9.80;99.90
18593;DHT22;9426;54.118;17.948;2022-10-03T05:51:09;9.90;99.90
18593;DHT22;9426;54.118;17.948;2022-10-03T05:56:58;10.10;99.90
18593;DHT22;9426;54.118;17.948;2022-10-03T06:02:58;10.30;99.90
18593;DHT22;9426;54.118;17.948;2022-10-03T06:14:32;10.50;99.90
18593;DHT22;9426;54.118;17.948;2022-10-03T06:20:03;10.60;99.90
18593;DHT22;9426;54.118;17.948;2022-10-03T06:26:04;10.60;99.90
18593;DHT22;9426;54.118;17.948;2022-10-03T06:32:05;10.80;99.90
18593;DHT22;9426;54.118;17.948;2022-10-03T06:37:57;10.80;99.90
18593;DHT22;9426;54.118;17.948;2022-10-03T06:43:57;10.90;99.90
18593;DHT22;9426;54.118;17.948;2022-10-03T06:49:47;10.90;99.90
18593;DHT22;9426;54.118;17.948;2022-10-03T07:01:27;10.70;99.90
18593;DHT22;9426;54.118;17.948;2022-10-03T07:07:18;10.80;99.90
18593;DHT22;9426;54.118;17.948;2022-10-03T07:13:21;10.70;99.90
18593;DHT22;9426;54.118;17.948;2022-10-03T07:19:17;10.60;99.90
18593;DHT22;9426;54.118;17.948;2022-10-03T07:25:25;10.40;99.90
18593;DHT22;9426;54.118;17.948;2022-10-03T07:31:01;10.20;99.90
18593;DHT22;9426;54.118;17.948;2022-10-03T07:48:53;9.80;99.90
18593;DHT22;9426;54.118;17.948;2022-10-03T07:54:28;10.30;99.90
18593;DHT22;9426;54.118;17.948;2022-10-03T08:00:14;10.90;99.90
18593;DHT22;9426;54.118;17.948;2022-10-03T08:06:04;11.20;99.90
18593;DHT22;9426;54.118;17.948;2022-10-03T08:11:52;11.40;99.90
18593;DHT22;9426;54.118;17.948;2022-10-03T08:23:46;11.70;99.90
18593;DHT22;9426;54.118;17.948;2022-10-03T08:29:32;11.70;99.90
18593;DHT22;9426;54.118;17.948;2022-10-03T08:47:41;12.00;99.90
18593;DHT22;9426;54.118;17.948;2022-10-03T09:05:38;11.20;99.90
18593;DHT22;9426;54.118;17.948;2022-10-03T09:11:41;10.80;99.90
18593;DHT22;9426;54.118;17.948;2022-10-03T09:17:49;10.90;99.90
18593;DHT22;9426;54.118;17.948;2022-10-03T09:35:39;12.60;99.90
18593;DHT22;9426;54.118;17.948;2022-10-03T09:41:38;12.40;99.90
18593;DHT22;9426;54.118;17.948;2022-10-03T09:59:49;12.20;99.90
18593;DHT22;9426;54.118;17.948;2022-10-03T10:11:40;13.10;99.90
18593;DHT22;9426;54.118;17.948;2022-10-03T10:18:00;13.50;99.90
18593;DHT22;9426;54.118;17.948;2022-10-03T10:23:47;13.70;99.90
18593;DHT22;9426;54.118;17.948;2022-10-03T10:54:14;14.10;99.90
18593;DHT22;9426;54.118;17.948;2022-10-03T11:00:06;14.80;99.90
18593;DHT22;9426;54.118;17.948;2022-10-03T11:24:25;16.70;99.90
18593;DHT22;9426;54.118;17.948;2022-10-03T11:30:21;17.10;99.90
18593;DHT22;9426;54.118;17.948;2022-10-03T11:41:58;16.70;99.90
18593;DHT22;9426;54.118;17.948;2022-10-03T11:47:50;16.90;99.90
18593;DHT22;9426;54.118;17.948;2022-10-03T11:53:27;16.50;99.90
18593;DHT22;9426;54.118;17.948;2022-10-03T12:04:58;15.90;99.90
18593;DHT22;9426;54.118;17.948;2022-10-03T12:10:34;17.00;99.90
18593;DHT22;9426;54.118;17.948;2022-10-03T12:16:05;16.50;99.90
18593;DHT22;9426;54.118;17.948;2022-10-03T12:21:43;16.40;99.90
18593;DHT22;9426;54.118;17.948;2022-10-03T12:27:19;16.40;99.90
18593;DHT22;9426;54.118;17.948;2022-10-03T12:33:00;17.40;99.90
18593;DHT22;9426;54.118;17.948;2022-10-03T12:38:36;17.70;99.90
18593;DHT22;9426;54.118;17.948;2022-10-03T12:44:22;19.50;99.90
18593;DHT22;9426;54.118;17.948;2022-10-03T12:49:56;19.80;99.90
18593;DHT22;9426;54.118;17.948;2022-10-03T12:55:25;19.40;99.90
18593;DHT22;9426;54.118;17.948;2022-10-03T13:00:55;18.80;99.90
18593;DHT22;9426;54.118;17.948;2022-10-03T13:06:35;18.90;99.90
18593;DHT22;9426;54.118;17.948;2022-10-03T13:12:29;18.90;99.90
18593;DHT22;9426;54.118;17.948;2022-10-03T13:18:03;18.70;99.90
18593;DHT22;9426;54.118;17.948;2022-10-03T13:23:39;16.30;99.90
18593;DHT22;9426;54.118;17.948;2022-10-03T13:29:14;17.90;99.90
18593;DHT22;9426;54.118;17.948;2022-10-03T13:35:03;19.30;99.90
18593;DHT22;9426;54.118;17.948;2022-10-03T13:40:47;19.60;99.90
18593;DHT22;9426;54.118;17.948;2022-10-03T13:46:16;19.10;99.90
18593;DHT22;9426;54.118;17.948;2022-10-03T13:51:47;19.20;99.90
18593;DHT22;9426;54.118;17.948;2022-10-03T13:57:17;17.70;99.90
18593;DHT22;9426;54.118;17.948;2022-10-03T14:03:07;17.40;99.90
18593;DHT22;9426;54.118;17.948;2022-10-03T14:08:56;19.50;99.90
18593;DHT22;9426;54.118;17.948;2022-10-03T14:20:31;19.30;99.90
18593;DHT22;9426;54.118;17.948;2022-10-03T14:26:01;17.50;99.90
18593;DHT22;9426;54.118;17.948;2022-10-03T14:31:31;15.60;99.90
18593;DHT22;9426;54.118;17.948;2022-10-03T14:37:04;14.20;99.90
18593;DHT22;9426;54.118;17.948;2022-10-03T14:48:24;13.10;99.90
18593;DHT22;9426;54.118;17.948;2022-10-03T14:53:52;12.90;99.90
18593;DHT22;9426;54.118;17.948;2022-10-03T14:59:20;12.80;99.90
18593;DHT22;9426;54.118;17.948;2022-10-03T15:04:46;12.60;99.90
18593;DHT22;9426;54.118;17.948;2022-10-03T15:10:12;12.40;99.90
18593;DHT22;9426;54.118;17.948;2022-10-03T15:15:39;12.40;99.90
18593;DHT22;9426;54.118;17.948;2022-10-03T15:21:05;12.30;99.90
18593;DHT22;9426;54.118;17.948;2022-10-03T15:26:36;12.30;99.90
18593;DHT22;9426;54.118;17.948;2022-10-03T15:32:03;12.10;99.90
18593;DHT22;9426;54.118;17.948;2022-10-03T15:37:33;11.90;99.90
18593;DHT22;9426;54.118;17.948;2022-10-03T15:43:04;11.70;99.90
18593;DHT22;9426;54.118;17.948;2022-10-03T15:48:29;11.50;99.90
18593;DHT22;9426;54.118;17.948;2022-10-03T15:53:57;11.30;99.90
18593;DHT22;9426;54.118;17.948;2022-10-03T15:59:25;11.20;99.90
18593;DHT22;9426;54.118;17.948;2022-10-03T16:04:52;11.10;99.90
18593;DHT22;9426;54.118;17.948;2022-10-03T16:10:20;11.00;99.90
18593;DHT22;9426;54.118;17.948;2022-10-03T16:16:03;10.80;99.90
18593;DHT22;9426;54.118;17.948;2022-10-03T16:21:42;10.70;99.90
18593;DHT22;9426;54.118;17.948;2022-10-03T16:27:15;10.70;99.90
18593;DHT22;9426;54.118;17.948;2022-10-03T16:32:45;10.60;99.90
18593;DHT22;9426;54.118;17.948;2022-10-03T16:38:19;10.70;99.90
18593;DHT22;9426;54.118;17.948;2022-10-03T16:43:53;10.60;99.90
18593;DHT22;9426;54.118;17.948;2022-10-03T16:49:31;10.50;99.90
18593;DHT22;9426;54.118;17.948;2022-10-03T16:55:28;10.50;99.90
18593;DHT22;9426;54.118;17.948;2022-10-03T17:00:58;10.50;99.90
18593;DHT22;9426;54.118;17.948;2022-10-03T17:13:53;10.10;99.90
18593;DHT22;9426;54.118;17.948;2022-10-03T17:19:26;10.00;99.90
18593;DHT22;9426;54.118;17.948;2022-10-03T17:24:59;9.90;99.90
18593;DHT22;9426;54.118;17.948;2022-10-03T17:30:32;9.80;99.90
18593;DHT22;9426;54.118;17.948;2022-10-03T17:36:01;9.80;99.90
18593;DHT22;9426;54.118;17.948;2022-10-03T17:41:34;9.80;99.90
18593;DHT22;9426;54.118;17.948;2022-10-03T17:47:14;9.80;99.90
18593;DHT22;9426;54.118;17.948;2022-10-03T17:52:44;9.80;99.90
18593;DHT22;9426;54.118;17.948;2022-10-03T17:58:12;9.80;99.90
18593;DHT22;9426;54.118;17.948;2022-10-03T18:03:45;9.70;99.90
18593;DHT22;9426;54.118;17.948;2022-10-03T18:09:23;9.50;99.90
18593;DHT22;9426;54.118;17.948;2022-10-03T18:15:04;9.50;99.90
18593;DHT22;9426;54.118;17.948;2022-10-03T18:20:44;9.50;99.90
18593;DHT22;9426;54.118;17.948;2022-10-03T18:26:16;9.40;99.90
18593;DHT22;9426;54.118;17.948;2022-10-03T18:31:46;9.40;99.90
18593;DHT22;9426;54.118;17.948;2022-10-03T18:49:14;9.50;99.90
18593;DHT22;9426;54.118;17.948;2022-10-03T18:55:00;9.50;99.90
18593;DHT22;9426;54.118;17.948;2022-10-03T19:00:27;9.60;99.90
18593;DHT22;9426;54.118;17.948;2022-10-03T19:05:56;9.60;99.90
18593;DHT22;9426;54.118;17.948;2022-10-03T19:11:22;9.60;99.90
18593;DHT22;9426;54.118;17.948;2022-10-03T19:17:06;9.60;99.90
18593;DHT22;9426;54.118;17.948;2022-10-03T19:22:38;9.60;99.90
18593;DHT22;9426;54.118;17.948;2022-10-03T19:28:07;9.60;99.90
18593;DHT22;9426;54.118;17.948;2022-10-03T19:33:43;9.60;99.90
18593;DHT22;9426;54.118;17.948;2022-10-03T19:39:12;9.80;99.90
18593;DHT22;9426;54.118;17.948;2022-10-03T19:44:37;9.90;99.90
18593;DHT22;9426;54.118;17.948;2022-10-03T19:50:08;10.00;99.90
18593;DHT22;9426;54.118;17.948;2022-10-03T19:55:34;10.10;99.90
18593;DHT22;9426;54.118;17.948;2022-10-03T20:01:01;10.10;99.90
18593;DHT22;9426;54.118;17.948;2022-10-03T20:06:34;10.10;99.90
18593;DHT22;9426;54.118;17.948;2022-10-03T20:12:02;10.10;99.90
18593;DHT22;9426;54.118;17.948;2022-10-03T20:17:29;10.10;99.90
18593;DHT22;9426;54.118;17.948;2022-10-03T20:22:55;10.20;99.90
18593;DHT22;9426;54.118;17.948;2022-10-03T20:28:38;10.30;99.90
18593;DHT22;9426;54.118;17.948;2022-10-03T20:34:11;10.30;99.90
18593;DHT22;9426;54.118;17.948;2022-10-03T20:39:37;10.30;99.90
18593;DHT22;9426;54.118;17.948;2022-10-03T20:45:04;10.30;99.90
18593;DHT22;9426;54.118;17.948;2022-10-03T20:50:32;10.30;99.90
18593;DHT22;9426;54.118;17.948;2022-10-03T20:56:01;10.30;99.90
18593;DHT22;9426;54.118;17.948;2022-10-03T21:01:27;10.20;99.90
18593;DHT22;9426;54.118;17.948;2022-10-03T21:06:54;10.30;99.90
18593;DHT22;9426;54.118;17.948;2022-10-03T21:12:26;10.30;99.90
18593;DHT22;9426;54.118;17.948;2022-10-03T21:17:52;10.30;99.90
18593;DHT22;9426;54.118;17.948;2022-10-03T21:23:22;10.40;99.90
18593;DHT22;9426;54.118;17.948;2022-10-03T21:28:48;10.50;99.90
18593;DHT22;9426;54.118;17.948;2022-10-03T21:34:19;10.40;99.90
18593;DHT22;9426;54.118;17.948;2022-10-03T21:39:52;10.30;99.90
18593;DHT22;9426;54.118;17.948;2022-10-03T21:45:26;11.30;99.90
18593;DHT22;9426;54.118;17.948;2022-10-03T21:50:57;10.10;99.90
18593;DHT22;9426;54.118;17.948;2022-10-03T21:56:32;10.00;99.90
18593;DHT22;9426;54.118;17.948;2022-10-03T22:02:06;9.80;99.90
18593;DHT22;9426;54.118;17.948;2022-10-03T22:07:35;9.70;99.90
18593;DHT22;9426;54.118;17.948;2022-10-03T22:13:05;9.50;99.90
18593;DHT22;9426;54.118;17.948;2022-10-03T22:18:41;9.30;99.90
18593;DHT22;9426;54.118;17.948;2022-10-03T22:24:08;9.10;99.90
18593;DHT22;9426;54.118;17.948;2022-10-03T22:29:37;9.00;99.90
18593;DHT22;9426;54.118;17.948;2022-10-03T22:35:15;9.00;99.90
18593;DHT22;9426;54.118;17.948;2022-10-03T22:40:43;9.20;99.90
18593;DHT22;9426;54.118;17.948;2022-10-03T22:46:09;9.20;99.90
18593;DHT22;9426;54.118;17.948;2022-10-03T22:51:35;9.10;99.90
18593;DHT22;9426;54.118;17.948;2022-10-03T22:57:04;9.10;99.90
18593;DHT22;9426;54.118;17.948;2022-10-03T23:02:31;9.30;99.90
18593;DHT22;9426;54.118;17.948;2022-10-03T23:08:05;9.40;99.90
18593;DHT22;9426;54.118;17.948;2022-10-03T23:13:36;9.50;99.90
18593;DHT22;9426;54.118;17.948;2022-10-03T23:19:11;9.40;99.90
18593;DHT22;9426;54.118;17.948;2022-10-03T23:24:39;9.30;99.90
18593;DHT22;9426;54.118;17.948;2022-10-03T23:36:15;9.20;99.90
18593;DHT22;9426;54.118;17.948;2022-10-03T23:41:44;9.10;99.90
18593;DHT22;9426;54.118;17.948;2022-10-03T23:47:18;9.10;99.90
18593;DHT22;9426;54.118;17.948;2022-10-03T23:52:45;9.10;99.90
18593;DHT22;9426;54.118;17.948;2022-10-03T23:58:20;9.10;99.90
